Time;durP1;ratioP1;P1;durP2;ratioP2;P2;SDS_P1;SDS_P2;PMS_P1;PMS_P2;Temp;Humidity;BMP_temperature;BMP_pressure;BME280_temperature;BME280_humidity;BME280_pressure;Samples;Min_cycle;Max_cycle;Signal;HPM_P1;HPM_P2
2022/09/16 00:00:57;;;;;;;4.30;1.55;;;13.40;99.90;;;12.91;100.00;96442.13;5040349;28;20049;-77
2022/09/16 00:03:24;;;;;;;5.07;1.92;;;13.40;99.90;;;12.82;100.00;96443.59;5042883;28;20734;-77
2022/09/16 00:05:52;;;;;;;6.35;1.55;;;13.30;99.90;;;12.61;100.00;96451.09;5046946;28;20079;-77
2022/09/16 00:08:21;;;;;;;5.20;2.58;;;13.20;99.90;;;12.47;100.00;96451.22;5043615;28;20057;-77
2022/09/16 00:10:49;;;;;;;6.35;2.25;;;13.10;99.90;;;12.42;100.00;96440.28;5023157;28;20121;-77
2022/09/16 00:13:16;;;;;;;9.77;2.25;;;13.00;99.90;;;12.32;100.00;96355.06;5026759;28;20105;-77
2022/09/16 00:15:47;;;;;;;5.10;2.13;;;12.80;99.90;;;12.28;100.00;96345.78;5025603;28;20466;-78
2022/09/16 00:18:14;;;;;;;6.28;2.05;;;12.80;99.90;;;12.35;100.00;96341.00;5044133;28;20068;-77
2022/09/16 00:20:48;;;;;;;4.35;1.92;;;12.80;99.90;;;12.17;100.00;96345.69;5044213;28;20060;-77
2022/09/16 00:23:16;;;;;;;7.95;1.80;;;12.80;99.90;;;11.95;100.00;96355.88;5026835;28;20687;-76
2022/09/16 00:25:43;;;;;;;5.07;1.40;;;12.60;99.90;;;11.96;100.00;96371.41;5033776;28;20055;-76
2022/09/16 00:28:10;;;;;;;3.92;1.70;;;12.50;99.90;;;11.91;100.00;96360.47;5047579;28;20064;-77
2022/09/16 00:30:37;;;;;;;4.05;1.33;;;12.50;99.90;;;11.97;100.00;96351.41;5057948;28;20392;-76
2022/09/16 00:33:04;;;;;;;6.18;2.05;;;12.40;99.90;;;11.82;100.00;96355.88;5046103;28;20536;-76
2022/09/16 00:35:31;;;;;;;7.70;2.15;;;12.30;99.90;;;11.71;100.00;96346.19;5044556;28;20061;-77
2022/09/16 00:37:57;;;;;;;10.15;2.30;;;12.30;99.90;;;11.62;100.00;96337.22;5043613;28;20416;-77
2022/09/16 00:40:25;;;;;;;5.68;1.70;;;12.20;99.90;;;11.71;100.00;96334.00;5046649;28;20055;-76
2022/09/16 00:42:52;;;;;;;3.40;1.52;;;12.20;99.90;;;11.63;100.00;96331.13;5043965;28;20068;-77
2022/09/16 00:45:27;;;;;;;5.15;1.60;;;12.30;99.90;;;11.72;100.00;96324.44;5030557;28;20455;-77
2022/09/16 00:47:59;;;;;;;6.25;2.38;;;12.30;99.90;;;11.61;100.00;96309.59;5043535;28;20141;-77
2022/09/16 00:50:43;;;;;;;5.87;2.73;;;12.30;99.90;;;11.67;100.00;96277.13;5045549;28;20048;-77
2022/09/16 00:53:17;;;;;;;6.60;2.40;;;12.30;99.90;;;11.55;100.00;96264.97;5044367;28;20049;-76
2022/09/16 00:55:45;;;;;;;4.53;1.85;;;12.30;99.90;;;11.62;100.00;96263.63;5041459;28;20075;-77
2022/09/16 00:58:47;;;;;;;5.68;1.90;;;12.30;99.90;;;11.28;100.00;96284.06;5045343;28;20048;-77
2022/09/16 01:01:14;;;;;;;5.05;2.33;;;12.40;99.90;;;11.36;100.00;96276.63;5058441;28;20052;-76
2022/09/16 01:03:54;;;;;;;6.32;2.10;;;12.30;99.90;;;11.60;100.00;96258.53;5041750;28;20045;-76
2022/09/16 01:06:23;;;;;;;7.10;2.00;;;12.30;99.90;;;11.71;100.00;96258.63;5042901;28;20086;-76
2022/09/16 01:08:51;;;;;;;4.95;2.28;;;12.40;99.90;;;11.65;100.00;96264.22;5045142;28;20094;-77
2022/09/16 01:11:17;;;;;;;5.97;1.95;;;12.40;99.90;;;11.77;100.00;96270.38;5043661;28;20053;-78
2022/09/16 01:13:45;;;;;;;7.63;2.75;;;12.50;99.90;;;11.47;100.00;96291.47;5043435;28;20144;-76
2022/09/16 01:16:21;;;;;;;8.40;3.58;;;12.60;99.90;;;11.45;100.00;96304.56;5058401;28;21413;-76
2022/09/16 01:19:03;;;;;;;9.88;3.20;;;12.60;99.90;;;11.49;100.00;96310.38;5042831;28;20874;-76
2022/09/16 01:21:44;;;;;;;5.40;2.70;;;12.60;99.90;;;11.62;100.00;96311.22;5041553;28;20056;-77
2022/09/16 01:24:42;;;;;;;5.78;2.50;;;12.50;99.90;;;11.92;100.00;96303.16;5060235;28;20086;-77
2022/09/16 01:27:54;;;;;;;6.78;2.53;;;12.60;99.90;;;12.10;100.00;96302.84;5046409;28;20040;-77
2022/09/16 01:31:12;;;;;;;5.05;2.53;;;12.70;99.90;;;12.20;100.00;96303.03;5041935;28;20060;-77
2022/09/16 01:34:24;;;;;;;6.00;2.08;;;12.80;99.90;;;12.30;100.00;96312.69;5036470;28;20420;-77
2022/09/16 01:37:32;;;;;;;6.13;1.70;;;12.90;99.90;;;12.41;100.00;96311.13;5046625;28;20056;-77
2022/09/16 01:40:42;;;;;;;6.03;1.70;;;13.00;99.90;;;12.51;100.00;96312.13;5064041;28;20055;-77
2022/09/16 01:43:53;;;;;;;3.33;1.75;;;13.10;99.90;;;12.56;100.00;96302.22;5019387;28;20037;-77
2022/09/16 01:46:42;;;;;;;5.20;2.05;;;13.10;99.90;;;12.57;100.00;96322.13;5040202;28;20118;-77
2022/09/16 01:49:45;;;;;;;7.05;1.55;;;13.20;99.90;;;12.70;100.00;96328.13;5064723;28;20143;-77
2022/09/16 01:52:51;;;;;;;5.25;1.60;;;13.30;99.90;;;12.82;100.00;96333.38;5062007;28;20431;-76
2022/09/16 01:55:37;;;;;;;6.70;1.77;;;13.40;99.90;;;12.93;100.00;96338.63;5056935;28;20044;-77
2022/09/16 01:58:31;;;;;;;3.08;1.20;;;13.50;99.90;;;12.99;100.00;96356.44;5063796;28;20052;-77
2022/09/16 02:01:08;;;;;;;4.38;1.40;;;13.50;99.90;;;12.97;100.00;96379.16;5062913;28;20477;-77
2022/09/16 02:03:40;;;;;;;4.80;1.60;;;13.60;99.90;;;13.07;100.00;96388.00;5063646;28;20052;-77
2022/09/16 02:06:14;;;;;;;3.63;1.35;;;13.60;99.90;;;13.06;100.00;96399.34;5048257;28;20072;-77
2022/09/16 02:08:55;;;;;;;9.45;1.65;;;13.70;99.90;;;13.04;100.00;96398.63;5047399;28;20048;-76
2022/09/16 02:11:24;;;;;;;7.72;1.60;;;13.70;99.90;;;13.13;100.00;96412.75;5043271;28;20443;-77
2022/09/16 02:14:02;;;;;;;11.63;1.85;;;13.80;99.90;;;13.03;100.00;96416.97;5062598;28;20056;-77
2022/09/16 02:16:55;;;;;;;6.05;1.70;;;13.70;99.90;;;13.08;100.00;96407.88;5044507;28;20056;-76
2022/09/16 02:19:35;;;;;;;5.97;1.77;;;13.70;99.90;;;13.00;100.00;96406.75;5042179;28;20080;-77
2022/09/16 02:22:08;;;;;;;4.95;1.73;;;13.70;99.90;;;12.98;100.00;96415.53;5043566;28;20414;-77
2022/09/16 02:24:37;;;;;;;5.43;1.65;;;13.70;99.90;;;12.97;100.00;96413.84;5061012;28;20048;-77
2022/09/16 02:27:10;;;;;;;4.93;1.60;;;13.70;99.90;;;12.98;100.00;96412.91;5038766;28;20040;-77
2022/09/16 02:29:49;;;;;;;5.07;2.15;;;13.70;99.90;;;13.04;100.00;96416.03;5043449;28;20063;-77
2022/09/16 02:32:19;;;;;;;7.30;1.70;;;13.70;99.90;;;13.12;100.00;96419.75;5061447;28;20044;-76
2022/09/16 02:34:50;;;;;;;6.72;1.90;;;13.70;99.90;;;13.06;100.00;96417.56;5059566;28;20131;-76
2022/09/16 02:37:31;;;;;;;7.47;1.67;;;13.70;99.90;;;13.03;100.00;96415.19;5059928;28;20489;-77
2022/09/16 02:40:05;;;;;;;9.20;2.00;;;13.70;99.90;;;13.00;100.00;96417.19;5062332;28;20068;-77
2022/09/16 02:42:33;;;;;;;5.03;1.60;;;13.70;99.90;;;13.01;100.00;96424.91;5040308;28;20374;-77
2022/09/16 02:45:01;;;;;;;4.20;1.67;;;13.70;99.90;;;13.10;100.00;96424.25;5060788;28;20053;-77
2022/09/16 02:47:59;;;;;;;4.50;1.70;;;13.70;99.90;;;13.03;100.00;96419.59;5037154;28;20052;-77
2022/09/16 02:50:58;;;;;;;4.93;2.10;;;13.70;99.90;;;12.99;100.00;96424.16;5027039;28;20413;-76
2022/09/16 02:53:42;;;;;;;6.55;1.98;;;13.70;99.90;;;13.06;100.00;96412.38;5040819;28;20052;-77
2022/09/16 02:56:28;;;;;;;7.85;2.33;;;13.70;99.90;;;13.02;100.00;96412.69;5059176;28;20040;-76
2022/09/16 02:58:55;;;;;;;6.85;1.50;;;13.70;99.90;;;13.09;100.00;96412.16;5061590;28;20653;-77
2022/09/16 03:01:23;;;;;;;7.13;1.70;;;13.70;99.90;;;13.16;100.00;96412.56;5062325;28;20052;-76
2022/09/16 03:03:54;;;;;;;9.27;2.30;;;13.70;99.90;;;13.10;100.00;96413.81;5060629;28;20093;-77
2022/09/16 03:06:27;;;;;;;4.10;1.70;;;13.70;99.90;;;13.03;100.00;96415.19;5038185;28;20056;-76
2022/09/16 03:08:59;;;;;;;10.52;2.25;;;13.70;99.90;;;13.01;100.00;96413.66;5060642;28;20449;-77
2022/09/16 03:12:16;;;;;;;5.45;1.90;;;13.60;99.90;;;12.95;100.00;96404.47;5058660;28;20481;-77
2022/09/16 03:15:25;;;;;;;6.85;2.30;;;13.60;99.90;;;13.00;100.00;96406.75;5060522;28;20044;-77
2022/09/16 03:18:43;;;;;;;6.93;1.85;;;13.60;99.90;;;12.96;100.00;96419.19;5061301;28;20045;-77
2022/09/16 03:21:40;;;;;;;9.05;2.17;;;13.70;99.90;;;13.00;100.00;96414.56;5025910;28;20098;-76
2022/09/16 03:24:42;;;;;;;9.70;2.60;;;13.60;99.90;;;12.94;100.00;96403.66;5042237;28;20551;-77
2022/09/16 03:27:17;;;;;;;5.65;1.50;;;13.60;99.90;;;12.99;100.00;96411.13;5058791;28;20048;-77
2022/09/16 03:30:10;;;;;;;5.07;1.52;;;13.70;99.90;;;13.02;100.00;96407.47;5041194;28;20423;-77
2022/09/16 03:33:02;;;;;;;8.45;2.72;;;13.70;99.90;;;12.98;100.00;96406.88;5038286;28;20509;-77
2022/09/16 03:35:43;;;;;;;12.80;2.00;;;13.70;99.90;;;13.02;100.00;96412.69;5042325;28;20474;-77
2022/09/16 03:38:12;;;;;;;8.10;2.35;;;13.70;99.90;;;13.02;100.00;96412.69;5042448;28;20064;-76
2022/09/16 03:40:42;;;;;;;7.45;2.00;;;13.70;99.90;;;12.98;100.00;96418.13;5043092;28;20059;-77
2022/09/16 03:43:11;;;;;;;6.18;1.75;;;13.60;99.90;;;12.96;100.00;96413.97;5042059;28;20044;-77
2022/09/16 03:45:41;;;;;;;5.78;2.55;;;13.60;99.90;;;12.98;100.00;96412.91;5062564;28;20040;-76
2022/09/16 03:48:11;;;;;;;7.45;2.28;;;13.70;99.90;;;13.01;100.00;96406.66;5042835;28;20403;-77
2022/09/16 03:50:41;;;;;;;3.88;1.40;;;13.70;99.90;;;12.98;100.00;96404.28;5041189;28;20056;-76
2022/09/16 03:53:08;;;;;;;6.10;1.90;;;13.70;99.90;;;13.07;100.00;96397.56;5063629;28;20108;-77
2022/09/16 03:55:35;;;;;;;7.78;1.48;;;13.70;99.90;;;13.10;100.00;96407.78;5060858;28;20048;-76
2022/09/16 03:58:02;;;;;;;6.90;1.90;;;13.70;99.90;;;13.17;100.00;96407.22;5057050;28;20037;-77
2022/09/16 04:00:30;;;;;;;3.55;1.65;;;13.80;99.90;;;13.21;100.00;96407.84;5042063;28;20052;-77
2022/09/16 04:02:59;;;;;;;5.78;1.35;;;13.80;99.90;;;13.26;100.00;96410.13;5039719;28;20059;-77
2022/09/16 04:05:26;;;;;;;5.20;1.50;;;13.80;99.90;;;13.20;100.00;96411.38;5044131;28;20136;-77
2022/09/16 04:07:53;;;;;;;3.42;1.60;;;13.80;99.90;;;13.05;100.00;96409.88;5026431;28;20066;-76
2022/09/16 04:10:20;;;;;;;6.35;1.85;;;13.80;99.90;;;12.93;100.00;96398.53;5047041;28;20040;-76
2022/09/16 04:12:47;;;;;;;7.00;1.45;;;13.70;99.90;;;12.94;100.00;96387.19;5047085;28;20144;-76
2022/09/16 04:15:15;;;;;;;5.78;1.50;;;13.60;99.90;;;12.78;100.00;96390.06;5058398;28;20054;-76
2022/09/16 04:17:42;;;;;;;10.90;2.10;;;13.50;99.90;;;12.73;100.00;96392.16;5042446;28;20421;-76
2022/09/16 04:20:09;;;;;;;9.55;2.15;;;13.40;99.90;;;12.75;100.00;96395.50;5061977;28;20044;-76
2022/09/16 04:22:36;;;;;;;6.13;2.00;;;13.40;99.90;;;12.76;100.00;96384.13;5061438;28;20089;-77
2022/09/16 04:25:03;;;;;;;7.78;2.20;;;13.40;99.90;;;12.78;100.00;96384.84;5041558;28;20041;-77
2022/09/16 04:27:31;;;;;;;5.68;1.75;;;13.40;99.90;;;12.82;100.00;96386.31;5039762;28;20072;-77
2022/09/16 04:29:58;;;;;;;7.35;2.03;;;13.40;99.90;;;12.80;100.00;96389.97;5040642;28;20048;-77
2022/09/16 04:32:25;;;;;;;8.02;2.58;;;13.30;99.90;;;12.80;100.00;96392.56;5045270;28;20051;-77
2022/09/16 04:34:52;;;;;;;4.25;1.45;;;13.40;99.90;;;12.74;100.00;96392.03;5057215;28;20045;-76
2022/09/16 04:37:19;;;;;;;7.55;2.08;;;13.40;99.90;;;12.84;100.00;96389.63;5044542;28;20398;-77
2022/09/16 04:39:46;;;;;;;9.15;2.30;;;13.50;99.90;;;12.80;100.00;96389.97;5046215;28;20049;-77
2022/09/16 04:42:16;;;;;;;4.95;2.10;;;13.50;99.90;;;12.74;100.00;96397.25;5046066;28;20124;-77
2022/09/16 04:44:43;;;;;;;5.28;1.80;;;13.40;99.90;;;12.77;100.00;96391.84;5045624;28;20770;-77
2022/09/16 04:47:10;;;;;;;7.07;2.10;;;13.40;99.90;;;12.64;100.00;96396.22;5045249;28;20047;-77
2022/09/16 04:49:37;;;;;;;9.25;1.95;;;13.30;99.90;;;12.69;100.00;96396.72;5044762;28;20053;-78
2022/09/16 04:52:04;;;;;;;8.15;2.05;;;13.40;99.90;;;12.70;100.00;96401.03;5043406;28;20057;-77
2022/09/16 04:54:31;;;;;;;7.38;1.80;;;13.40;99.90;;;12.79;100.00;96394.31;5075016;28;20068;-77
2022/09/16 04:56:58;;;;;;;7.10;1.80;;;13.30;99.90;;;12.59;100.00;96406.13;5058055;28;20052;-76
2022/09/16 04:59:25;;;;;;;5.10;1.90;;;13.30;99.90;;;12.69;100.00;96403.72;5030258;28;20053;-76
2022/09/16 05:01:51;;;;;;;11.10;2.38;;;13.30;99.90;;;12.74;100.00;96414.63;5045018;28;20110;-77
2022/09/16 05:04:19;;;;;;;6.40;1.85;;;13.30;99.90;;;12.66;100.00;96411.75;5045244;28;20079;-77
2022/09/16 05:06:46;;;;;;;6.38;2.00;;;13.30;99.90;;;12.68;100.00;96415.06;5045022;28;20056;-77
2022/09/16 05:09:13;;;;;;;7.25;1.60;;;13.30;99.90;;;12.60;100.00;96415.59;5045293;28;20140;-78
2022/09/16 05:11:41;;;;;;;6.10;1.70;;;13.30;99.90;;;12.61;100.00;96416.44;5046068;28;20049;-77
2022/09/16 05:14:13;;;;;;;8.32;1.73;;;13.30;99.90;;;12.66;100.00;96415.19;5044849;28;20049;-78
2022/09/16 05:16:40;;;;;;;5.63;1.33;;;13.30;99.90;;;12.73;100.00;96418.19;5027739;28;20056;-77
2022/09/16 05:19:10;;;;;;;6.95;1.95;;;13.30;99.90;;;12.66;100.00;96423.00;5040021;28;20057;-77
2022/09/16 05:21:37;;;;;;;4.95;1.40;;;13.30;99.90;;;12.81;100.00;96420.25;5043616;28;20057;-76
2022/09/16 05:24:07;;;;;;;6.15;1.60;;;13.30;99.90;;;12.75;100.00;96418.94;5044783;28;20154;-76
2022/09/16 05:26:38;;;;;;;3.80;1.75;;;13.40;99.90;;;12.67;100.00;96418.63;5059674;28;20055;-76
2022/09/16 05:29:10;;;;;;;9.57;2.05;;;13.30;99.90;;;12.61;100.00;96426.84;5059867;28;20052;-75
2022/09/16 05:31:40;;;;;;;6.70;1.50;;;13.30;99.90;;;12.61;100.00;96432.88;5064015;28;20092;-76
2022/09/16 05:34:23;;;;;;;7.90;1.75;;;13.30;99.90;;;12.63;100.00;96430.16;5033788;28;20527;-77
2022/09/16 05:36:52;;;;;;;5.03;1.48;;;13.30;99.90;;;12.65;100.00;96430.91;5054510;28;20139;-77
2022/09/16 05:39:20;;;;;;;5.80;1.50;;;13.30;99.90;;;12.51;100.00;96440.50;5066094;28;20076;-77
2022/09/16 05:41:54;;;;;;;6.10;1.55;;;13.30;99.90;;;12.52;100.00;96442.16;5060392;28;20061;-77
2022/09/16 05:44:22;;;;;;;6.03;1.58;;;13.30;99.90;;;12.61;100.00;96445.88;5046031;28;20140;-77
2022/09/16 05:46:48;;;;;;;7.65;1.30;;;13.30;99.90;;;12.40;100.00;96457.78;5046832;28;20071;-77
2022/09/16 05:49:19;;;;;;;3.47;1.23;;;13.30;99.90;;;12.58;100.00;96455.69;5049411;28;20432;-77
2022/09/16 05:51:48;;;;;;;8.57;1.48;;;13.30;99.90;;;12.67;100.00;96449.84;5065737;28;20044;-77
2022/09/16 05:54:17;;;;;;;5.55;1.38;;;13.30;99.90;;;12.76;100.00;96451.81;5043460;28;20088;-77
2022/09/16 05:56:45;;;;;;;5.50;1.83;;;13.40;99.90;;;12.61;100.00;96453.69;5047385;28;20112;-77
2022/09/16 05:59:13;;;;;;;15.57;2.60;;;13.40;99.90;;;12.63;100.00;96464.00;5059718;28;20059;-77
2022/09/16 06:01:41;;;;;;;4.00;1.33;;;13.50;99.90;;;12.74;100.00;96456.31;5047717;28;20064;-77
2022/09/16 06:04:13;;;;;;;4.78;1.40;;;13.50;99.90;;;12.68;100.00;96464.53;5048944;28;20045;-77
2022/09/16 06:06:45;;;;;;;5.43;1.27;;;13.40;99.90;;;12.66;100.00;96463.81;5049640;28;20106;-77
2022/09/16 06:09:18;;;;;;;6.05;1.60;;;13.40;99.90;;;12.81;100.00;96459.31;5049313;28;20662;-77
2022/09/16 06:11:48;;;;;;;4.30;1.23;;;13.40;99.90;;;12.79;100.00;96462.00;5061989;28;20053;-77
2022/09/16 06:14:16;;;;;;;9.98;1.40;;;13.40;99.90;;;12.66;100.00;96467.25;5042598;28;20591;-77
2022/09/16 06:16:43;;;;;;;4.22;1.10;;;13.50;99.90;;;12.81;100.00;96474.94;5045736;28;20061;-77
2022/09/16 06:19:14;;;;;;;2.65;1.10;;;13.60;99.90;;;12.76;100.00;96481.28;5060508;28;20048;-77
2022/09/16 06:21:43;;;;;;;7.13;1.48;;;13.50;99.90;;;12.82;100.00;96477.44;5058336;28;20134;-77
2022/09/16 06:24:12;;;;;;;6.43;1.20;;;13.50;99.90;;;12.90;100.00;96474.28;5026577;28;20055;-76
2022/09/16 06:26:42;;;;;;;7.90;1.20;;;13.60;99.90;;;12.87;100.00;96479.72;5043142;28;20409;-77
2022/09/16 06:29:10;;;;;;;2.53;0.95;;;13.70;99.90;;;13.05;100.00;96481.06;5058589;28;20516;-77
2022/09/16 06:31:38;;;;;;;4.63;1.20;;;13.80;99.90;;;12.94;100.00;96492.22;5045422;28;20045;-77
2022/09/16 06:34:06;;;;;;;5.55;1.10;;;13.90;99.90;;;13.04;100.00;96479.38;5042193;28;20040;-77
2022/09/16 06:36:37;;;;;;;5.75;1.23;;;13.90;99.90;;;13.17;100.00;96480.19;5043835;28;20095;-77
2022/09/16 06:39:15;;;;;;;8.00;1.52;;;14.10;99.90;;;13.24;100.00;96492.78;5030398;28;20052;-77
2022/09/16 06:41:42;;;;;;;5.97;1.20;;;14.10;99.90;;;13.09;100.00;96497.28;5045206;28;20056;-76
2022/09/16 06:44:09;;;;;;;4.22;1.33;;;14.10;99.90;;;12.97;100.00;96497.19;5062047;28;20045;-77
2022/09/16 06:46:36;;;;;;;5.45;1.20;;;14.00;99.90;;;13.03;100.00;96490.75;5046556;28;20055;-76
2022/09/16 06:49:03;;;;;;;6.55;1.27;;;14.00;99.90;;;12.96;100.00;96499.94;5062608;28;20059;-77
2022/09/16 06:51:33;;;;;;;5.63;1.30;;;14.00;99.90;;;13.16;100.00;96495.94;5063338;28;20497;-77
2022/09/16 06:54:06;;;;;;;8.82;1.63;;;14.00;99.90;;;12.87;100.00;96524.81;5058200;28;20048;-77
2022/09/16 06:56:36;;;;;;;6.13;1.20;;;14.00;99.90;;;12.99;100.00;96515.34;5062054;28;20052;-77
2022/09/16 06:59:04;;;;;;;5.15;1.35;;;13.90;99.90;;;12.93;100.00;96526.16;5061293;28;20493;-77
2022/09/16 07:01:32;;;;;;;5.90;0.90;;;13.80;99.90;;;13.03;100.00;96529.00;5044789;28;20454;-77
2022/09/16 07:04:04;;;;;;;5.03;1.15;;;13.80;99.90;;;12.82;100.00;96533.88;5058320;28;20071;-78
2022/09/16 07:06:32;;;;;;;5.13;1.05;;;13.80;99.90;;;13.02;100.00;96527.31;5060679;28;20048;-77
2022/09/16 07:09:19;;;;;;;6.82;1.08;;;13.90;99.90;;;13.02;100.00;96535.13;5046256;28;20097;-76
2022/09/16 07:11:46;;;;;;;6.10;1.23;;;14.00;99.90;;;12.89;100.00;96538.59;5045243;28;20041;-76
2022/09/16 07:14:13;;;;;;;3.15;0.93;;;14.10;99.90;;;13.26;100.00;96535.19;5041120;28;20102;-77
2022/09/16 07:16:40;;;;;;;4.60;1.00;;;14.20;99.90;;;13.20;100.00;96541.66;5047495;28;20056;-76
2022/09/16 07:19:07;;;;;;;5.05;1.13;;;14.20;99.90;;;13.26;100.00;96545.63;5032479;28;20088;-76
2022/09/16 07:21:34;;;;;;;3.35;0.88;;;14.20;99.90;;;13.27;100.00;96550.72;5066622;28;20049;-77
2022/09/16 07:24:02;;;;;;;7.20;1.08;;;14.30;99.90;;;13.21;100.00;96555.53;5044072;28;20040;-77
2022/09/16 07:26:33;;;;;;;6.65;1.00;;;14.30;99.90;;;13.10;100.00;96601.41;5041285;28;20052;-77
2022/09/16 07:29:03;;;;;;;5.85;1.05;;;14.30;99.90;;;13.04;100.00;96601.81;5044093;28;20159;-77
2022/09/16 07:31:34;;;;;;;6.45;0.95;;;14.10;99.90;;;13.15;100.00;96608.91;5042204;28;20110;-76
2022/09/16 07:34:03;;;;;;;6.57;1.02;;;14.20;99.90;;;13.13;100.00;96614.19;5040712;28;20085;-76
2022/09/16 07:36:44;;;;;;;8.38;1.30;;;14.30;99.90;;;13.36;100.00;96625.72;5041354;28;20076;-76
2022/09/16 07:39:13;;;;;;;5.50;0.95;;;14.30;99.90;;;13.35;100.00;96641.44;5025795;28;20053;-77
2022/09/16 07:41:43;;;;;;;4.80;1.00;;;14.50;99.90;;;13.28;100.00;96648.84;5035309;28;20168;-77
2022/09/16 07:44:17;;;;;;;9.07;1.45;;;14.50;99.90;;;13.46;100.00;96651.16;5041790;28;20041;-77
2022/09/16 07:46:44;;;;;;;6.43;1.10;;;14.60;99.90;;;13.36;100.00;96666.56;5054492;28;20426;-77
2022/09/16 07:49:13;;;;;;;4.65;1.05;;;14.60;99.90;;;13.05;100.00;96668.63;5045340;28;20048;-76
2022/09/16 07:51:41;;;;;;;7.47;1.05;;;14.50;99.90;;;13.35;100.00;96670.13;5041057;28;20049;-76
2022/09/16 07:54:13;;;;;;;7.45;0.80;;;14.50;99.90;;;13.39;100.00;96676.78;5040669;28;20054;-77
2022/09/16 07:56:42;;;;;;;6.18;0.80;;;14.60;99.90;;;13.31;100.00;96679.91;5039919;28;20049;-77
2022/09/16 07:59:16;;;;;;;4.45;1.00;;;14.60;99.90;;;13.29;100.00;96718.25;5041459;28;20668;-77
2022/09/16 08:01:47;;;;;;;4.65;0.90;;;14.40;99.90;;;13.47;100.00;96739.66;5051879;28;20041;-76
2022/09/16 08:04:15;;;;;;;4.78;1.15;;;14.50;99.90;;;13.80;100.00;96743.53;5023514;28;20108;-77
2022/09/16 08:06:42;;;;;;;6.70;0.90;;;14.50;99.90;;;13.68;100.00;96762.59;5044677;28;20461;-76
2022/09/16 08:09:09;;;;;;;11.18;1.00;;;14.70;99.90;;;13.44;100.00;96781.59;5044289;28;20553;-77
2022/09/16 08:11:56;;;;;;;6.97;1.10;;;14.70;99.90;;;13.45;100.00;96777.19;5043639;28;20053;-77
2022/09/16 08:14:22;;;;;;;5.10;0.90;;;14.60;99.90;;;13.23;100.00;96777.75;5057609;28;20506;-77
2022/09/16 08:16:50;;;;;;;8.10;1.00;;;14.50;99.90;;;13.51;100.00;96779.41;5026990;28;20094;-77
2022/09/16 08:19:19;;;;;;;5.82;0.90;;;14.50;99.90;;;13.64;100.00;96782.00;5042762;28;20139;-77
2022/09/16 08:21:46;;;;;;;6.20;0.90;;;14.70;99.90;;;13.76;100.00;96778.56;5047209;28;20045;-76
2022/09/16 08:24:13;;;;;;;4.00;0.80;;;14.90;99.90;;;13.95;100.00;96775.53;5059663;28;20049;-77
2022/09/16 08:26:40;;;;;;;7.90;1.10;;;15.00;99.90;;;13.85;100.00;96831.91;5064866;28;20088;-76
2022/09/16 08:29:07;;;;;;;7.00;1.08;;;15.10;99.90;;;13.88;100.00;96943.84;5046063;28;20055;-75
2022/09/16 08:31:37;;;;;;;6.20;0.80;;;15.10;99.90;;;13.63;100.00;96957.66;5061754;28;20187;-77
2022/09/16 08:34:04;;;;;;;5.00;0.73;;;15.10;99.90;;;13.84;100.00;96964.06;5043690;28;20741;-76
2022/09/16 08:36:32;;;;;;;5.07;0.90;;;15.20;99.90;;;13.76;100.00;96974.19;5039665;28;20052;-77
2022/09/16 08:39:00;;;;;;;5.57;1.42;;;15.20;99.90;;;13.65;100.00;96980.09;5064879;28;20470;-77
2022/09/16 08:42:28;;;;;;;6.85;1.05;;;15.20;99.90;;;13.81;100.00;96988.59;5063835;28;20807;-77
2022/09/16 08:45:23;;;;;;;4.15;0.75;;;15.10;99.90;;;13.83;100.00;97025.03;5053934;28;20709;-77
2022/09/16 08:48:41;;;;;;;4.20;1.00;;;15.10;99.90;;;13.92;100.00;97041.88;5061214;28;20518;-76
2022/09/16 08:51:15;;;;;;;7.85;0.85;;;15.10;99.90;;;14.05;100.00;97041.88;5059836;28;20058;-77
2022/09/16 08:53:51;;;;;;;6.07;1.02;;;15.30;99.90;;;14.21;100.00;97055.63;5029672;28;20056;-77
2022/09/16 08:56:22;;;;;;;3.25;0.70;;;15.50;99.90;;;14.25;100.00;97058.84;5042918;28;20080;-77
2022/09/16 08:58:59;;;;;;;6.47;0.63;;;15.70;99.90;;;14.60;100.00;97064.41;5043399;28;20045;-77
2022/09/16 09:02:40;;;;;;;5.45;1.10;;;16.00;99.90;;;14.92;100.00;97101.41;5062212;28;20053;-77
2022/09/16 09:05:34;;;;;;;4.75;0.80;;;16.20;99.90;;;15.36;100.00;97097.53;4998468;28;20063;-77
2022/09/16 09:08:52;;;;;;;3.60;0.70;;;16.70;99.90;;;15.46;100.00;97095.09;5057478;28;20792;-77
2022/09/16 09:11:37;;;;;;;3.97;0.70;;;16.80;99.90;;;15.74;100.00;97101.88;5015905;28;20040;-76
2022/09/16 09:14:25;;;;;;;5.95;0.70;;;17.10;99.90;;;14.62;100.00;97112.97;5060072;28;20071;-77
2022/09/16 09:17:37;;;;;;;5.28;0.73;;;16.90;99.90;;;14.82;100.00;97119.50;5060818;28;20051;-77
2022/09/16 09:20:16;;;;;;;7.90;0.80;;;16.50;99.90;;;14.58;100.00;97108.91;5043036;28;20045;-76
2022/09/16 09:23:12;;;;;;;7.22;0.68;;;16.30;99.90;;;15.33;100.00;97113.44;5062513;28;20541;-76
2022/09/16 09:26:13;;;;;;;2.95;0.75;;;16.50;99.90;;;15.29;100.00;97114.56;5022148;28;20048;-77
2022/09/16 09:29:07;;;;;;;3.78;0.57;;;16.60;99.90;;;15.33;100.00;97108.19;5021521;28;20466;-76
2022/09/16 09:31:57;;;;;;;7.93;0.93;;;16.60;99.90;;;14.83;100.00;97117.72;5019442;28;20064;-76
2022/09/16 09:35:00;;;;;;;3.28;0.55;;;16.40;99.90;;;15.15;100.00;97110.31;5025612;28;20049;-77
2022/09/16 09:37:42;;;;;;;4.18;0.73;;;16.30;99.90;;;15.54;100.00;97100.63;5038743;28;20166;-76
2022/09/16 09:40:17;;;;;;;3.17;0.60;;;16.40;99.90;;;15.73;100.00;97107.22;5045568;28;20060;-77
2022/09/16 09:43:19;;;;;;;3.97;0.60;;;16.90;99.90;;;16.74;100.00;97099.84;5043746;28;20413;-77
2022/09/16 09:46:40;;;;;;;4.65;0.90;;;17.70;99.90;;;17.37;100.00;97099.47;5035778;28;20056;-76
2022/09/16 09:49:26;;;;;;;5.80;0.57;;;18.70;99.90;;;17.93;100.00;97091.56;5007335;28;20180;-76
2022/09/16 09:51:56;;;;;;;3.58;0.60;;;;;;;18.28;100.00;97091.31;5002555;28;20056;-76
2022/09/16 09:54:33;;;;;;;8.40;0.80;;;19.60;99.90;;;18.13;100.00;97108.31;5041987;28;20084;-76
2022/09/16 09:57:42;;;;;;;4.38;0.85;;;20.20;99.90;;;18.81;100.00;97095.75;4992584;28;20052;-76
2022/09/16 10:00:16;;;;;;;2.35;0.63;;;;;;;18.25;100.00;97104.72;5043453;28;20071;-77
2022/09/16 10:02:45;;;;;;;2.83;0.50;;;20.80;99.90;;;17.90;100.00;97097.03;5040101;28;20067;-77
2022/09/16 10:05:22;;;;;;;4.97;0.60;;;20.20;99.90;;;17.92;100.00;97103.84;5041822;28;20048;-75
2022/09/16 10:07:53;;;;;;;2.85;0.70;;;19.90;99.90;;;17.38;100.00;97104.59;5033955;28;20125;-76
2022/09/16 10:10:23;;;;;;;5.70;0.63;;;19.40;99.90;;;16.34;100.00;97115.88;5037971;28;20051;-76
2022/09/16 10:12:50;;;;;;;3.35;0.70;;;19.00;99.90;;;16.02;100.00;97107.75;5024831;28;20041;-76
2022/09/16 10:15:27;;;;;;;4.72;0.55;;;18.40;99.90;;;16.30;100.00;97111.81;5023393;28;20076;-76
2022/09/16 10:17:57;;;;;;;3.40;0.60;;;18.00;99.90;;;16.78;100.00;97111.72;5039685;28;20144;-76
2022/09/16 10:20:33;;;;;;;2.33;0.45;;;18.10;99.90;;;15.73;100.00;97107.22;5038298;28;20060;-76
2022/09/16 10:23:19;;;;;;;2.85;0.50;;;18.00;99.90;;;16.52;100.00;97104.03;5034860;28;20055;-76
2022/09/16 10:25:46;;;;;;;4.60;0.60;;;17.80;99.90;;;16.51;100.00;97099.78;5043758;28;20398;-77
2022/09/16 10:28:23;;;;;;;8.00;0.80;;;17.80;99.90;;;16.04;100.00;97103.25;5046173;28;20044;-75
2022/09/16 10:30:54;;;;;;;3.42;0.70;;;17.60;99.90;;;15.83;100.00;97111.69;5059080;28;20049;-75
2022/09/16 10:33:33;;;;;;;9.80;0.93;;;17.40;99.90;;;16.12;100.00;97107.91;5060271;28;20106;-75
2022/09/16 10:36:06;;;;;;;7.10;0.80;;;17.40;99.90;;;16.47;100.00;97110.59;5037415;28;20398;-77
2022/09/16 10:38:48;;;;;;;4.75;0.90;;;17.50;99.90;;;16.41;100.00;97104.00;5043982;28;20082;-76
2022/09/16 10:41:20;;;;;;;2.80;0.60;;;17.80;99.90;;;16.21;100.00;97109.88;5042423;28;20044;-76
2022/09/16 10:43:55;;;;;;;;;;;17.90;99.90;;;15.56;100.00;97117.06;5043415;28;20048;-77
2022/09/16 10:46:22;;;;;;;4.78;0.75;;;17.70;99.90;;;15.39;100.00;97099.91;5043708;28;19920;-76
2022/09/16 10:48:53;;;;;;;3.30;0.73;;;17.50;99.90;;;15.43;100.00;97084.84;5044772;28;20447;-77